Time;durP1;ratioP1;P1;durP2;ratioP2;P2;SDS_P1;SDS_P2;PMS_P1;PMS_P2;Temp;Humidity;BMP_temperature;BMP_pressure;BME280_temperature;BME280_humidity;BME280_pressure;Samples;Min_cycle;Max_cycle;Signal;HPM_P1;HPM_P2
2023/05/28 00:00:30;;;;;;;0.60;0.60;;;;;;;;;;5075118;28;20183;-80
2023/05/28 00:02:56;;;;;;;0.47;0.47;;;;;;;;;;5075606;28;20177;-81
2023/05/28 00:05:23;;;;;;;0.60;0.60;;;;;;;;;;5075822;28;20186;-84
2023/05/28 00:07:49;;;;;;;0.60;0.60;;;;;;;;;;5075883;28;20538;-81
2023/05/28 00:10:15;;;;;;;0.50;0.50;;;;;;;;;;5086444;28;20194;-81
2023/05/28 00:12:41;;;;;;;0.63;0.63;;;;;;;;;;5094433;28;20208;-79
2023/05/28 00:15:07;;;;;;;0.50;0.50;;;;;;;;;;5094892;28;20179;-79
2023/05/28 00:17:33;;;;;;;0.40;0.40;;;;;;;;;;5097937;28;20187;-81
2023/05/28 00:19:59;;;;;;;0.50;0.50;;;;;;;;;;5096783;28;20266;-83
2023/05/28 00:22:25;;;;;;;0.50;0.50;;;;;;;;;;5097278;28;20185;-83
2023/05/28 00:24:51;;;;;;;0.47;0.47;;;;;;;;;;5090841;28;20175;-83
2023/05/28 00:27:17;;;;;;;0.50;0.50;;;;;;;;;;5080911;28;20178;-83
2023/05/28 00:29:43;;;;;;;0.60;0.60;;;;;;;;;;5080372;28;20279;-82
2023/05/28 00:32:09;;;;;;;0.50;0.50;;;;;;;;;;5079946;28;20265;-83
2023/05/28 00:34:35;;;;;;;0.50;0.50;;;;;;;;;;5079485;28;20225;-83
2023/05/28 00:37:02;;;;;;;0.60;0.60;;;;;;;;;;5094319;28;20230;-84
2023/05/28 00:39:28;;;;;;;0.50;0.50;;;;;;;;;;5080537;28;20174;-83
2023/05/28 00:42:01;;;;;;;0.60;0.60;;;;;;;;;;5082001;28;20236;-83
2023/05/28 00:44:27;;;;;;;0.60;0.60;;;;;;;;;;5079722;28;20190;-85
2023/05/28 00:46:54;;;;;;;0.60;0.60;;;;;;;;;;5079539;28;20185;-85
2023/05/28 00:49:20;;;;;;;0.53;0.53;;;;;;;;;;5079395;28;20288;-85
2023/05/28 00:51:46;;;;;;;0.57;0.57;;;;;;;;;;5079151;28;20198;-82
2023/05/28 00:54:12;;;;;;;0.50;0.50;;;;;;;;;;5080007;28;20214;-83
2023/05/28 00:56:38;;;;;;;0.40;0.40;;;;;;;;;;5079675;28;20197;-83
2023/05/28 00:59:04;;;;;;;0.50;0.50;;;;;;;;;;5079897;28;20178;-83
2023/05/28 01:01:30;;;;;;;0.53;0.53;;;;;;;;;;5087043;28;20262;-81
2023/05/28 01:03:58;;;;;;;0.50;0.50;;;;;;;;;;5089925;28;20174;-81
2023/05/28 01:06:24;;;;;;;0.57;0.57;;;;;;;;;;5087398;28;20614;-84
2023/05/28 01:08:50;;;;;;;0.60;0.60;;;;;;;;;;5081016;28;20171;-82
2023/05/28 01:11:18;;;;;;;0.50;0.50;;;;;;;;;;5085967;28;20195;-80
2023/05/28 01:13:44;;;;;;;0.50;0.50;;;;;;;;;;5089946;28;20206;-83
2023/05/28 01:16:10;;;;;;;0.60;0.60;;;;;;;;;;5089397;28;20170;-80
2023/05/28 01:18:40;;;;;;;0.53;0.53;;;;;;;;;;5089523;28;20196;-82
2023/05/28 01:21:07;;;;;;;0.60;0.60;;;;;;;;;;5088606;28;20206;-79
2023/05/28 01:23:43;;;;;;;0.50;0.50;;;;;;;;;;5089844;28;20600;-79
2023/05/28 01:26:10;;;;;;;0.43;0.43;;;;;;;;;;5082212;28;20197;-80
2023/05/28 01:28:36;;;;;;;0.60;0.60;;;;;;;;;;5078262;28;20239;-79
2023/05/28 01:31:02;;;;;;;0.50;0.50;;;;;;;;;;5078235;28;20202;-81
2023/05/28 01:33:30;;;;;;;0.50;0.50;;;;;;;;;;5077489;28;20210;-80
2023/05/28 01:35:56;;;;;;;0.57;0.57;;;;;;;;;;5077694;28;20219;-81
2023/05/28 01:38:23;;;;;;;0.53;0.53;;;;;;;;;;5077438;28;20178;-83
2023/05/28 01:40:49;;;;;;;0.50;0.50;;;;;;;;;;5076864;28;20281;-81
2023/05/28 01:43:16;;;;;;;0.60;0.60;;;;;;;;;;5077354;28;20645;-80
2023/05/28 01:45:42;;;;;;;0.60;0.60;;;;;;;;;;5077224;28;20190;-82
2023/05/28 01:48:08;;;;;;;0.50;0.50;;;;;;;;;;5077438;28;20177;-81
2023/05/28 01:50:35;;;;;;;0.50;0.50;;;;;;;;;;5076313;28;20205;-81
2023/05/28 01:53:01;;;;;;;0.60;0.60;;;;;;;;;;5076535;28;20727;-83
2023/05/28 01:55:27;;;;;;;0.50;0.50;;;;;;;;;;5077115;28;20884;-81
2023/05/28 01:57:53;;;;;;;0.57;0.57;;;;;;;;;;5076708;28;20633;-80
2023/05/28 02:00:19;;;;;;;0.50;0.50;;;;;;;;;;5077196;28;20289;-79
2023/05/28 02:02:45;;;;;;;0.50;0.50;;;;;;;;;;5081679;28;20165;-89
2023/05/28 02:05:11;;;;;;;0.60;0.60;;;;;;;;;;5098854;28;20189;-85
2023/05/28 02:07:37;;;;;;;0.50;0.50;;;;;;;;;;5098900;28;20160;-85
2023/05/28 02:10:03;;;;;;;0.60;0.60;;;;;;;;;;5097897;28;20182;-88
2023/05/28 02:12:29;;;;;;;0.60;0.60;;;;;;;;;;5086858;28;20183;-82
2023/05/28 02:14:56;;;;;;;0.60;0.60;;;;;;;;;;5082868;28;20178;-82
2023/05/28 02:17:22;;;;;;;0.50;0.50;;;;;;;;;;5083503;28;20197;-81
2023/05/28 02:19:47;;;;;;;0.47;0.47;;;;;;;;;;5082751;28;20206;-81
2023/05/28 02:22:14;;;;;;;0.50;0.50;;;;;;;;;;5081487;28;20668;-82
2023/05/28 02:24:40;;;;;;;0.60;0.60;;;;;;;;;;5077240;28;20545;-82
2023/05/28 02:27:07;;;;;;;0.53;0.53;;;;;;;;;;5076950;28;20174;-82
2023/05/28 02:29:33;;;;;;;0.60;0.60;;;;;;;;;;5076694;28;20194;-82
2023/05/28 02:32:00;;;;;;;0.53;0.53;;;;;;;;;;5076845;28;20238;-82
2023/05/28 02:34:28;;;;;;;0.53;0.53;;;;;;;;;;5076699;28;20229;-83
2023/05/28 02:36:54;;;;;;;0.60;0.60;;;;;;;;;;5077043;28;20182;-81
2023/05/28 02:39:20;;;;;;;0.63;0.63;;;;;;;;;;5075954;28;20184;-82
2023/05/28 02:41:46;;;;;;;0.60;0.60;;;;;;;;;;5076459;28;20640;-81
2023/05/28 02:44:12;;;;;;;0.57;0.57;;;;;;;;;;5076234;28;20178;-82
2023/05/28 02:46:38;;;;;;;0.60;0.60;;;;;;;;;;5076667;28;20633;-82
2023/05/28 02:49:04;;;;;;;0.50;0.50;;;;;;;;;;5076325;28;20196;-80
2023/05/28 02:51:30;;;;;;;0.50;0.50;;;;;;;;;;5076856;28;20194;-81
2023/05/28 02:53:56;;;;;;;0.60;0.60;;;;;;;;;;5081242;28;20266;-81
2023/05/28 02:56:22;;;;;;;0.43;0.43;;;;;;;;;;5085420;28;20230;-82
2023/05/28 02:58:48;;;;;;;0.50;0.50;;;;;;;;;;5082742;28;20182;-81
2023/05/28 03:01:14;;;;;;;0.60;0.60;;;;;;;;;;5084001;28;20703;-80
2023/05/28 03:03:40;;;;;;;0.50;0.50;;;;;;;;;;5083100;28;20265;-81
2023/05/28 03:06:07;;;;;;;0.60;0.60;;;;;;;;;;5081680;28;20217;-82
2023/05/28 03:08:33;;;;;;;0.67;0.67;;;;;;;;;;5075900;28;20244;-80
2023/05/28 03:10:59;;;;;;;0.50;0.50;;;;;;;;;;5075061;28;20202;-80
2023/05/28 03:13:25;;;;;;;0.60;0.60;;;;;;;;;;5075095;28;20267;-81
2023/05/28 03:15:51;;;;;;;0.57;0.57;;;;;;;;;;5075414;28;20269;-80
2023/05/28 03:18:17;;;;;;;0.53;0.53;;;;;;;;;;5075751;28;20227;-83
2023/05/28 03:20:43;;;;;;;0.60;0.60;;;;;;;;;;5075298;28;20219;-82
2023/05/28 03:23:09;;;;;;;0.60;0.60;;;;;;;;;;5075086;28;20208;-82
2023/05/28 03:25:35;;;;;;;0.70;0.70;;;;;;;;;;5075383;28;20724;-82
2023/05/28 03:28:01;;;;;;;0.60;0.60;;;;;;;;;;5075549;28;20163;-83
2023/05/28 03:30:27;;;;;;;0.60;0.60;;;;;;;;;;5082026;28;20207;-80
2023/05/28 03:32:53;;;;;;;0.70;0.70;;;;;;;;;;5078065;28;20309;-82
2023/05/28 03:35:19;;;;;;;0.50;0.50;;;;;;;;;;5076561;28;20559;-82
2023/05/28 03:37:45;;;;;;;0.50;0.50;;;;;;;;;;5075919;28;20179;-82
2023/05/28 03:40:11;;;;;;;0.53;0.53;;;;;;;;;;5074288;28;20205;-82
2023/05/28 03:42:38;;;;;;;0.50;0.50;;;;;;;;;;5076116;28;20170;-82
2023/05/28 03:45:05;;;;;;;0.50;0.50;;;;;;;;;;5076398;28;20552;-82
2023/05/28 03:47:32;;;;;;;0.60;0.60;;;;;;;;;;5075842;28;20269;-82
2023/05/28 03:49:58;;;;;;;0.50;0.50;;;;;;;;;;5076207;28;20204;-81
2023/05/28 03:52:25;;;;;;;0.60;0.60;;;;;;;;;;5079675;28;20545;-80
2023/05/28 03:54:50;;;;;;;0.50;0.50;;;;;;;;;;5079369;28;20241;-79
2023/05/28 03:57:16;;;;;;;0.60;0.60;;;;;;;;;;5078844;28;20174;-82
2023/05/28 03:59:42;;;;;;;0.50;0.50;;;;;;;;;;5078624;28;20427;-84
2023/05/28 04:02:09;;;;;;;0.60;0.60;;;;;;;;;;5078735;28;20174;-81
2023/05/28 04:04:35;;;;;;;0.60;0.60;;;;;;;;;;5078238;28;20194;-81
2023/05/28 04:07:01;;;;;;;0.60;0.60;;;;;;;;;;5078797;28;20205;-82
2023/05/28 04:09:27;;;;;;;0.60;0.60;;;;;;;;;;5078261;28;20212;-81
2023/05/28 04:11:53;;;;;;;0.57;0.57;;;;;;;;;;5078567;28;20178;-82
2023/05/28 04:14:20;;;;;;;0.50;0.50;;;;;;;;;;5078614;28;20220;-80
2023/05/28 04:16:46;;;;;;;0.63;0.63;;;;;;;;;;5078177;28;20170;-82
2023/05/28 04:19:12;;;;;;;0.50;0.50;;;;;;;;;;5078207;28;20178;-81
2023/05/28 04:21:38;;;;;;;0.60;0.60;;;;;;;;;;5078035;28;20683;-80
2023/05/28 04:24:04;;;;;;;0.50;0.50;;;;;;;;;;5077734;28;20184;-79
2023/05/28 04:26:30;;;;;;;0.70;0.70;;;;;;;;;;5077044;28;20175;-79
2023/05/28 04:28:56;;;;;;;0.60;0.60;;;;;;;;;;5077563;28;20592;-80
2023/05/28 04:31:22;;;;;;;0.67;0.67;;;;;;;;;;5076397;28;20673;-80
2023/05/28 04:33:48;;;;;;;0.60;0.60;;;;;;;;;;5077267;28;20218;-79
2023/05/28 04:36:14;;;;;;;0.53;0.53;;;;;;;;;;5098236;28;20170;-78
2023/05/28 04:38:43;;;;;;;0.50;0.50;;;;;;;;;;5110612;28;20185;-77
2023/05/28 04:41:13;;;;;;;0.67;0.67;;;;;;;;;;5109367;28;20198;-78
2023/05/28 04:43:39;;;;;;;0.70;0.70;;;;;;;;;;5106357;28;20217;-77
2023/05/28 04:46:08;;;;;;;0.60;0.60;;;;;;;;;;5105580;28;20174;-77
2023/05/28 04:48:35;;;;;;;0.60;0.60;;;;;;;;;;5106267;28;20200;-77
2023/05/28 04:51:03;;;;;;;0.60;0.60;;;;;;;;;;5099158;28;20804;-81
2023/05/28 04:53:29;;;;;;;0.53;0.53;;;;;;;;;;5099742;28;20206;-81
2023/05/28 04:55:56;;;;;;;0.70;0.70;;;;;;;;;;5099551;28;20178;-81
2023/05/28 04:58:22;;;;;;;0.60;0.60;;;;;;;;;;5099033;28;20549;-81
2023/05/28 05:00:48;;;;;;;0.60;0.60;;;;;;;;;;5098031;28;20193;-81
2023/05/28 05:03:14;;;;;;;0.70;0.70;;;;;;;;;;5098158;28;20210;-80
2023/05/28 05:05:41;;;;;;;0.57;0.57;;;;;;;;;;5099143;28;20251;-80
2023/05/28 05:08:09;;;;;;;0.60;0.60;;;;;;;;;;5098920;28;20723;-81
2023/05/28 05:10:35;;;;;;;0.50;0.50;;;;;;;;;;5097772;28;20749;-81
2023/05/28 05:13:00;;;;;;;0.53;0.53;;;;;;;;;;5098315;28;20759;-81
2023/05/28 05:15:27;;;;;;;0.60;0.60;;;;;;;;;;5098314;28;20197;-81
2023/05/28 05:17:53;;;;;;;0.50;0.50;;;;;;;;;;5098286;28;20633;-80
2023/05/28 05:20:19;;;;;;;0.50;0.50;;;;;;;;;;5097417;28;20197;-80
2023/05/28 05:22:45;;;;;;;0.60;0.60;;;;;;;;;;5097394;28;20201;-81
2023/05/28 05:25:11;;;;;;;0.50;0.50;;;;;;;;;;5097671;28;20170;-80
2023/05/28 05:27:37;;;;;;;0.50;0.50;;;;;;;;;;5097893;28;20526;-80
2023/05/28 05:30:03;;;;;;;0.50;0.50;;;;;;;;;;5097765;28;20198;-81
2023/05/28 05:32:29;;;;;;;0.40;0.40;;;;;;;;;;5098386;28;20204;-81
2023/05/28 05:34:55;;;;;;;0.50;0.50;;;;;;;;;;5098160;28;20205;-81
2023/05/28 05:37:23;;;;;;;0.60;0.60;;;;;;;;;;5104535;28;20174;-78
2023/05/28 05:39:49;;;;;;;0.50;0.50;;;;;;;;;;5106600;28;20194;-80
2023/05/28 05:42:15;;;;;;;0.60;0.60;;;;;;;;;;5103925;28;20169;-81
2023/05/28 05:44:41;;;;;;;0.40;0.40;;;;;;;;;;5097503;28;20182;-80
2023/05/28 05:47:07;;;;;;;0.40;0.40;;;;;;;;;;5096884;28;20178;-80
2023/05/28 05:49:33;;;;;;;0.60;0.60;;;;;;;;;;5096230;28;20566;-79
2023/05/28 05:51:59;;;;;;;0.50;0.50;;;;;;;;;;5096693;28;20177;-80
2023/05/28 05:54:25;;;;;;;0.67;0.67;;;;;;;;;;5096740;28;20230;-80
2023/05/28 05:56:52;;;;;;;0.60;0.60;;;;;;;;;;5095850;28;20266;-80
2023/05/28 05:59:18;;;;;;;0.50;0.50;;;;;;;;;;5095780;28;20625;-80
2023/05/28 06:01:44;;;;;;;0.50;0.50;;;;;;;;;;5096260;28;20235;-82
2023/05/28 06:04:11;;;;;;;0.50;0.50;;;;;;;;;;5095907;28;20189;-81
2023/05/28 06:06:38;;;;;;;0.50;0.50;;;;;;;;;;5096001;28;20188;-80
2023/05/28 06:09:04;;;;;;;0.50;0.50;;;;;;;;;;5097883;28;20178;-80
2023/05/28 06:11:30;;;;;;;0.40;0.40;;;;;;;;;;5095487;28;20587;-81
2023/05/28 06:13:56;;;;;;;0.47;0.47;;;;;;;;;;5095553;28;20232;-80
2023/05/28 06:16:22;;;;;;;0.60;0.60;;;;;;;;;;5097466;28;20194;-80
2023/05/28 06:18:48;;;;;;;0.53;0.53;;;;;;;;;;5096469;28;20200;-80
2023/05/28 06:21:14;;;;;;;0.40;0.40;;;;;;;;;;5095418;28;20235;-80
2023/05/28 06:23:40;;;;;;;0.50;0.50;;;;;;;;;;5095915;28;20184;-81
2023/05/28 06:26:06;;;;;;;0.30;0.30;;;;;;;;;;5095955;28;20173;-80
2023/05/28 06:28:32;;;;;;;0.40;0.40;;;;;;;;;;5096012;28;20243;-79
2023/05/28 06:30:58;;;;;;;0.50;0.50;;;;;;;;;;5095102;28;20197;-80
2023/05/28 06:33:24;;;;;;;0.50;0.50;;;;;;;;;;5095262;28;20718;-80
2023/05/28 06:35:50;;;;;;;0.50;0.50;;;;;;;;;;5096054;28;20173;-80
2023/05/28 06:38:16;;;;;;;0.37;0.37;;;;;;;;;;5090968;28;20178;-78
2023/05/28 06:40:42;;;;;;;0.40;0.40;;;;;;;;;;5082916;28;20555;-79
2023/05/28 06:43:08;;;;;;;0.40;0.40;;;;;;;;;;5081708;28;20173;-79
2023/05/28 06:45:34;;;;;;;0.40;0.40;;;;;;;;;;5085611;28;20165;-81
2023/05/28 06:48:00;;;;;;;0.33;0.33;;;;;;;;;;5083414;28;20171;-80
2023/05/28 06:50:26;;;;;;;0.50;0.50;;;;;;;;;;5083706;28;20683;-80
2023/05/28 06:52:52;;;;;;;0.30;0.30;;;;;;;;;;5086406;28;20175;-82
2023/05/28 06:55:18;;;;;;;0.40;0.40;;;;;;;;;;5085412;28;20170;-82
2023/05/28 06:57:45;;;;;;;0.43;0.43;;;;;;;;;;5084761;28;20171;-80
2023/05/28 07:00:16;;;;;;;0.30;0.30;;;;;;;;;;5087094;28;20218;-80
2023/05/28 07:02:42;;;;;;;0.30;0.30;;;;;;;;;;5089724;28;20174;-84
2023/05/28 07:05:09;;;;;;;0.30;0.30;;;;;;;;;;5085407;28;20268;-83
2023/05/28 07:07:36;;;;;;;0.30;0.30;;;;;;;;;;5080547;28;20209;-82
2023/05/28 07:10:02;;;;;;;0.30;0.30;;;;;;;;;;5081486;28;20664;-81
2023/05/28 07:12:29;;;;;;;0.40;0.40;;;;;;;;;;5095814;28;20218;-81
2023/05/28 07:14:55;;;;;;;0.30;0.30;;;;;;;;;;5095393;28;20252;-81
2023/05/28 07:17:21;;;;;;;0.40;0.40;;;;;;;;;;5096130;28;20645;-82
2023/05/28 07:19:47;;;;;;;0.40;0.40;;;;;;;;;;5095180;28;20201;-81
2023/05/28 07:22:13;;;;;;;0.30;0.30;;;;;;;;;;5093670;28;20176;-81
2023/05/28 07:24:39;;;;;;;0.40;0.40;;;;;;;;;;5077436;28;20175;-80
2023/05/28 07:27:06;;;;;;;0.30;0.30;;;;;;;;;;5086068;28;20189;-83
2023/05/28 07:29:32;;;;;;;0.40;0.40;;;;;;;;;;5090652;28;20209;-79
2023/05/28 07:31:58;;;;;;;0.30;0.30;;;;;;;;;;5083909;28;20232;-82
2023/05/28 07:34:24;;;;;;;0.43;0.43;;;;;;;;;;5081692;28;20214;-82
2023/05/28 07:36:50;;;;;;;0.20;0.20;;;;;;;;;;5081272;28;20193;-84
2023/05/28 07:39:16;;;;;;;0.30;0.30;;;;;;;;;;5080128;28;20182;-83
2023/05/28 07:41:42;;;;;;;0.30;0.30;;;;;;;;;;5080683;28;20315;-83
2023/05/28 07:44:08;;;;;;;0.30;0.30;;;;;;;;;;5080226;28;20671;-81
2023/05/28 07:46:34;;;;;;;0.30;0.30;;;;;;;;;;5080295;28;20608;-82
2023/05/28 07:49:00;;;;;;;0.30;0.30;;;;;;;;;;5079916;28;20266;-83
2023/05/28 07:51:26;;;;;;;0.30;0.30;;;;;;;;;;5080359;28;20551;-82
2023/05/28 07:53:53;;;;;;;0.20;0.20;;;;;;;;;;5079868;28;20206;-84
2023/05/28 07:56:19;;;;;;;0.30;0.30;;;;;;;;;;5080963;28;20251;-84
2023/05/28 07:58:45;;;;;;;0.20;0.20;;;;;;;;;;5081215;28;20261;-82
2023/05/28 08:01:11;;;;;;;0.30;0.30;;;;;;;;;;5079249;28;20711;-84
2023/05/28 08:03:37;;;;;;;0.30;0.30;;;;;;;;;;5080969;28;20205;-84
2023/05/28 08:06:04;;;;;;;0.20;0.20;;;;;;;;;;5080765;28;20206;-84
2023/05/28 08:08:30;;;;;;;0.20;0.20;;;;;;;;;;5081520;28;20182;-84
2023/05/28 08:10:56;;;;;;;0.30;0.30;;;;;;;;;;5080240;28;20199;-85
2023/05/28 08:13:22;;;;;;;0.30;0.30;;;;;;;;;;5080784;28;20298;-84
2023/05/28 08:15:48;;;;;;;0.30;0.30;;;;;;;;;;5082095;28;20190;-84
2023/05/28 08:18:14;;;;;;;0.20;0.20;;;;;;;;;;5082769;28;20545;-85
2023/05/28 08:20:41;;;;;;;0.37;0.37;;;;;;;;;;5081647;28;20194;-84
2023/05/28 08:23:07;;;;;;;0.30;0.30;;;;;;;;;;5083264;28;20175;-84
2023/05/28 08:25:33;;;;;;;0.30;0.30;;;;;;;;;;5083574;28;20253;-85
2023/05/28 08:27:59;;;;;;;0.30;0.30;;;;;;;;;;5089007;28;20189;-84
2023/05/28 08:30:26;;;;;;;0.20;0.20;;;;;;;;;;5094944;28;20206;-83
2023/05/28 08:32:52;;;;;;;0.30;0.30;;;;;;;;;;5095187;28;20174;-83
2023/05/28 08:35:18;;;;;;;0.30;0.30;;;;;;;;;;5095907;28;20200;-83
2023/05/28 08:37:44;;;;;;;0.27;0.27;;;;;;;;;;5094679;28;20228;-82
2023/05/28 08:40:10;;;;;;;0.50;0.50;;;;;;;;;;5092608;28;20198;-83
2023/05/28 08:42:36;;;;;;;0.40;0.40;;;;;;;;;;5078516;28;20175;-82
2023/05/28 08:45:03;;;;;;;0.30;0.30;;;;;;;;;;5078263;28;20182;-82
2023/05/28 08:47:32;;;;;;;0.37;0.37;;;;;;;;;;5078171;28;20179;-83
2023/05/28 08:49:59;;;;;;;0.30;0.30;;;;;;;;;;5077726;28;20635;-84
2023/05/28 08:52:25;;;;;;;0.30;0.30;;;;;;;;;;5077570;28;20170;-82
2023/05/28 08:54:51;;;;;;;0.30;0.30;;;;;;;;;;5078095;28;20221;-82
2023/05/28 08:57:18;;;;;;;0.30;0.30;;;;;;;;;;5078222;28;20548;-82
2023/05/28 08:59:45;;;;;;;0.27;0.27;;;;;;;;;;5077462;28;20201;-83
2023/05/28 09:02:12;;;;;;;0.30;0.30;;;;;;;;;;5091815;28;20172;-83
2023/05/28 09:04:39;;;;;;;0.40;0.40;;;;;;;;;;5099094;28;20235;-85
2023/05/28 09:07:05;;;;;;;0.30;0.30;;;;;;;;;;5099451;28;20175;-84
2023/05/28 09:09:32;;;;;;;0.30;0.30;;;;;;;;;;5098573;28;20217;-85
2023/05/28 09:12:03;;;;;;;0.30;0.30;;;;;;;;;;5098913;28;20185;-85
2023/05/28 09:14:30;;;;;;;0.30;0.30;;;;;;;;;;5092307;28;20222;-85
2023/05/28 09:16:56;;;;;;;0.27;0.27;;;;;;;;;;5079902;28;20206;-85
2023/05/28 09:19:22;;;;;;;0.40;0.40;;;;;;;;;;5080430;28;20190;-86
2023/05/28 09:21:59;;;;;;;0.20;0.20;;;;;;;;;;5080690;28;20180;-85
2023/05/28 09:24:28;;;;;;;0.30;0.30;;;;;;;;;;5080491;28;20243;-85
2023/05/28 09:26:55;;;;;;;0.50;0.50;;;;;;;;;;5080809;28;20174;-84
2023/05/28 09:29:21;;;;;;;0.30;0.30;;;;;;;;;;5079226;28;20664;-83
2023/05/28 09:31:54;;;;;;;0.40;0.40;;;;;;;;;;5079512;28;20269;-84
2023/05/28 09:34:20;;;;;;;0.30;0.30;;;;;;;;;;5080859;28;20206;-84
2023/05/28 09:36:46;;;;;;;0.43;0.43;;;;;;;;;;5080103;28;20201;-84
2023/05/28 09:39:12;;;;;;;0.40;0.40;;;;;;;;;;5079174;28;20183;-83
2023/05/28 09:41:43;;;;;;;0.47;0.47;;;;;;;;;;5080304;28;20178;-84
2023/05/28 09:44:10;;;;;;;0.43;0.43;;;;;;;;;;5079692;28;20546;-83
2023/05/28 09:46:36;;;;;;;0.30;0.30;;;;;;;;;;5080422;28;20189;-84
2023/05/28 09:49:03;;;;;;;0.30;0.30;;;;;;;;;;5078543;28;20179;-83
2023/05/28 09:51:30;;;;;;;0.40;0.40;;;;;;;;;;5079470;28;20270;-84
2023/05/28 09:54:01;;;;;;;0.37;0.37;;;;;;;;;;5089627;28;20229;-85
2023/05/28 09:56:31;;;;;;;0.47;0.47;;;;;;;;;;5085118;28;20176;-84
2023/05/28 09:58:58;;;;;;;0.30;0.30;;;;;;;;;;5079963;28;20529;-84
2023/05/28 10:01:26;;;;;;;0.33;0.33;;;;;;;;;;5091905;28;20201;-84
2023/05/28 10:04:21;;;;;;;0.40;0.40;;;;;;;;;;5096891;28;20170;-85
2023/05/28 10:06:47;;;;;;;0.47;0.47;;;;;;;;;;5085595;28;20185;-84
2023/05/28 10:09:15;;;;;;;0.50;0.50;;;;;;;;;;5115994;28;20919;-84
2023/05/28 10:11:50;;;;;;;0.40;0.40;;;;;;;;;;5117130;28;20181;-83
2023/05/28 10:14:16;;;;;;;0.30;0.30;;;;;;;;;;5106004;28;20204;-84
2023/05/28 10:16:42;;;;;;;0.30;0.30;;;;;;;;;;5111895;28;20173;-84
2023/05/28 10:19:09;;;;;;;0.37;0.37;;;;;;;;;;5116450;28;20176;-83
2023/05/28 10:21:35;;;;;;;0.40;0.40;;;;;;;;;;5102357;28;20230;-84
2023/05/28 10:24:01;;;;;;;0.47;0.47;;;;;;;;;;5108754;28;20629;-85
2023/05/28 10:26:27;;;;;;;0.30;0.30;;;;;;;;;;5100289;28;20178;-83
2023/05/28 10:28:55;;;;;;;0.40;0.40;;;;;;;;;;5109234;28;20223;-83
2023/05/28 10:31:21;;;;;;;0.40;0.40;;;;;;;;;;5098514;28;20754;-84
2023/05/28 10:33:47;;;;;;;0.40;0.40;;;;;;;;;;5110450;28;20745;-84
2023/05/28 10:36:15;;;;;;;0.30;0.30;;;;;;;;;;5108268;28;20648;-83
2023/05/28 10:38:42;;;;;;;0.40;0.40;;;;;;;;;;5118488;28;20272;-84
2023/05/28 10:41:08;;;;;;;0.47;0.47;;;;;;;;;;5098350;28;20242;-83
2023/05/28 10:43:40;;;;;;;0.60;0.60;;;;;;;;;;5096237;28;20182;-84
2023/05/28 10:46:10;;;;;;;0.40;0.40;;;;;;;;;;5097031;28;20181;-83
2023/05/28 10:48:42;;;;;;;0.50;0.50;;;;;;;;;;5109734;28;20180;-84
2023/05/28 10:51:08;;;;;;;0.40;0.40;;;;;;;;;;5114465;28;20341;-86
2023/05/28 10:53:35;;;;;;;0.30;0.30;;;;;;;;;;5095772;28;20217;-84
2023/05/28 10:56:02;;;;;;;0.37;0.37;;;;;;;;;;5104556;28;20180;-83
2023/05/28 10:58:28;;;;;;;0.30;0.30;;;;;;;;;;5117767;28;20173;-86
2023/05/28 11:01:22;;;;;;;0.27;0.27;;;;;;;;;;5100947;28;20190;-85
2023/05/28 11:03:55;;;;;;;0.40;0.40;;;;;;;;;;5074735;28;20191;-83
2023/05/28 11:06:21;;;;;;;0.40;0.40;;;;;;;;;;5076452;28;20273;-83
2023/05/28 11:08:48;;;;;;;0.30;0.30;;;;;;;;;;5076386;28;20192;-84
2023/05/28 11:11:15;;;;;;;0.40;0.40;;;;;;;;;;5080050;28;20213;-82
2023/05/28 11:13:45;;;;;;;0.40;0.40;;;;;;;;;;5111111;28;20210;-85
2023/05/28 11:16:12;;;;;;;0.43;0.43;;;;;;;;;;5079869;28;20179;-83
2023/05/28 11:18:38;;;;;;;0.40;0.40;;;;;;;;;;5076310;28;20171;-84
2023/05/28 11:21:04;;;;;;;0.50;0.50;;;;;;;;;;5110543;28;20216;-84
2023/05/28 11:23:31;;;;;;;0.40;0.40;;;;;;;;;;5116250;28;20688;-84
2023/05/28 11:25:56;;;;;;;0.40;0.40;;;;;;;;;;5108191;28;20520;-84
2023/05/28 11:28:22;;;;;;;0.47;0.47;;;;;;;;;;5096877;28;20179;-85
2023/05/28 11:30:51;;;;;;;0.30;0.30;;;;;;;;;;5097000;28;20198;-83
2023/05/28 11:33:17;;;;;;;0.47;0.47;;;;;;;;;;5097718;28;20232;-84
2023/05/28 11:35:43;;;;;;;0.43;0.43;;;;;;;;;;5098159;28;20181;-83
2023/05/28 11:38:09;;;;;;;0.50;0.50;;;;;;;;;;5097879;28;20193;-86
2023/05/28 11:40:35;;;;;;;0.30;0.30;;;;;;;;;;5097791;28;20239;-84
2023/05/28 11:43:01;;;;;;;0.30;0.30;;;;;;;;;;5098714;28;20221;-84
2023/05/28 11:45:27;;;;;;;0.30;0.30;;;;;;;;;;5099589;28;20169;-84
2023/05/28 11:47:54;;;;;;;0.33;0.33;;;;;;;;;;5096725;28;20207;-83
2023/05/28 11:50:22;;;;;;;0.50;0.40;;;;;;;;;;5097202;28;20221;-82
2023/05/28 11:52:48;;;;;;;0.40;0.40;;;;;;;;;;5097706;28;20178;-84
2023/05/28 11:55:15;;;;;;;0.37;0.37;;;;;;;;;;5097184;28;20694;-84
2023/05/28 11:57:55;;;;;;;0.30;0.30;;;;;;;;;;5098365;28;20178;-84
2023/05/28 12:00:31;;;;;;;0.50;0.50;;;;;;;;;;5097055;28;20190;-84
2023/05/28 12:02:57;;;;;;;0.20;0.20;;;;;;;;;;5097169;28;20181;-84
2023/05/28 12:05:23;;;;;;;0.30;0.30;;;;;;;;;;5098286;28;20185;-83
2023/05/28 12:07:50;;;;;;;0.40;0.40;;;;;;;;;;5107801;28;20553;-83
2023/05/28 12:10:20;;;;;;;0.30;0.30;;;;;;;;;;5107165;28;20379;-83
2023/05/28 12:12:47;;;;;;;0.43;0.43;;;;;;;;;;5106724;28;20650;-83
2023/05/28 12:15:15;;;;;;;0.40;0.40;;;;;;;;;;5111315;28;20207;-82
2023/05/28 12:17:41;;;;;;;0.50;0.50;;;;;;;;;;5111061;28;20178;-83
2023/05/28 12:20:28;;;;;;;0.40;0.40;;;;;;;;;;5107754;28;20197;-82
2023/05/28 12:23:01;;;;;;;0.37;0.37;;;;;;;;;;5102861;28;20189;-85
2023/05/28 12:25:27;;;;;;;0.50;0.50;;;;;;;;;;5103258;28;20177;-84
2023/05/28 12:27:53;;;;;;;0.40;0.40;;;;;;;;;;5102577;28;20185;-84
2023/05/28 12:30:19;;;;;;;0.37;0.37;;;;;;;;;;5102317;28;20284;-84
2023/05/28 12:32:45;;;;;;;0.40;0.40;;;;;;;;;;5095141;28;20182;-85
2023/05/28 12:35:11;;;;;;;0.40;0.40;;;;;;;;;;5092381;28;20220;-83
2023/05/28 12:37:37;;;;;;;0.30;0.30;;;;;;;;;;5092946;28;20219;-83
2023/05/28 12:40:04;;;;;;;0.40;0.40;;;;;;;;;;5095873;28;20201;-84
2023/05/28 12:42:30;;;;;;;0.50;0.50;;;;;;;;;;5101527;28;20659;-84
2023/05/28 12:44:56;;;;;;;0.30;0.30;;;;;;;;;;5102101;28;20219;-84
2023/05/28 12:47:22;;;;;;;0.50;0.50;;;;;;;;;;5101583;28;20200;-83
2023/05/28 12:49:48;;;;;;;0.43;0.43;;;;;;;;;;5100908;28;20193;-83
2023/05/28 12:52:14;;;;;;;0.40;0.40;;;;;;;;;;5101487;28;20608;-82
2023/05/28 12:54:41;;;;;;;0.40;0.40;;;;;;;;;;5100828;28;20704;-82
2023/05/28 12:57:07;;;;;;;0.30;0.30;;;;;;;;;;5101557;28;20166;-84
2023/05/28 12:59:33;;;;;;;0.30;0.30;;;;;;;;;;5100573;28;20215;-85
2023/05/28 13:01:59;;;;;;;0.30;0.30;;;;;;;;;;5100771;28;20697;-82
2023/05/28 13:04:25;;;;;;;0.40;0.40;;;;;;;;;;5099206;28;20632;-84
2023/05/28 13:06:51;;;;;;;0.40;0.40;;;;;;;;;;5101098;28;20177;-83
2023/05/28 13:09:18;;;;;;;0.33;0.33;;;;;;;;;;5100309;28;20626;-84
2023/05/28 13:11:44;;;;;;;0.43;0.43;;;;;;;;;;5100342;28;20202;-84
2023/05/28 13:14:11;;;;;;;0.30;0.30;;;;;;;;;;5100141;28;20274;-83
2023/05/28 13:16:37;;;;;;;0.50;0.50;;;;;;;;;;5101158;28;20185;-83
2023/05/28 13:19:04;;;;;;;0.40;0.40;;;;;;;;;;5101163;28;20300;-84
2023/05/28 13:21:35;;;;;;;0.40;0.40;;;;;;;;;;5106280;28;20205;-81
2023/05/28 13:24:01;;;;;;;0.40;0.40;;;;;;;;;;5117983;28;20182;-82
2023/05/28 13:26:29;;;;;;;0.30;0.30;;;;;;;;;;5118983;28;20272;-81
2023/05/28 13:28:55;;;;;;;0.50;0.50;;;;;;;;;;5119179;28;20174;-80
2023/05/28 13:31:21;;;;;;;0.40;0.40;;;;;;;;;;5118224;28;20241;-81
2023/05/28 13:33:47;;;;;;;0.40;0.40;;;;;;;;;;5118994;28;20210;-80
2023/05/28 13:36:13;;;;;;;0.40;0.40;;;;;;;;;;5104155;28;20182;-84
2023/05/28 13:38:41;;;;;;;0.40;0.40;;;;;;;;;;5102502;28;20181;-84
2023/05/28 13:41:08;;;;;;;0.50;0.50;;;;;;;;;;5101492;28;20571;-84
2023/05/28 13:43:37;;;;;;;0.50;0.50;;;;;;;;;;5102323;28;20182;-84
2023/05/28 13:46:03;;;;;;;0.67;0.67;;;;;;;;;;5101823;28;20185;-84
2023/05/28 13:48:29;;;;;;;0.50;0.50;;;;;;;;;;5101919;28;20174;-83
2023/05/28 13:50:55;;;;;;;0.40;0.40;;;;;;;;;;5100635;28;20204;-85
2023/05/28 13:53:21;;;;;;;0.50;0.50;;;;;;;;;;5100123;28;20205;-86
2023/05/28 13:55:47;;;;;;;0.50;0.50;;;;;;;;;;5100463;28;20192;-84
2023/05/28 13:58:13;;;;;;;0.53;0.53;;;;;;;;;;5101145;28;20166;-84
2023/05/28 14:00:39;;;;;;;0.47;0.47;;;;;;;;;;5101244;28;20193;-84
2023/05/28 14:03:05;;;;;;;0.30;0.30;;;;;;;;;;5100797;28;20234;-85
2023/05/28 14:05:31;;;;;;;0.30;0.30;;;;;;;;;;5100996;28;20227;-86
2023/05/28 14:07:57;;;;;;;0.40;0.40;;;;;;;;;;5100954;28;20197;-84
2023/05/28 14:10:23;;;;;;;0.50;0.50;;;;;;;;;;5109220;28;20198;-82
2023/05/28 14:12:52;;;;;;;0.40;0.40;;;;;;;;;;5110453;28;20182;-83
2023/05/28 14:15:18;;;;;;;0.60;0.60;;;;;;;;;;5106443;28;20189;-83
2023/05/28 14:17:44;;;;;;;0.50;0.50;;;;;;;;;;5100135;28;20173;-83
2023/05/28 14:20:10;;;;;;;0.53;0.53;;;;;;;;;;5099487;28;20225;-84
2023/05/28 14:22:36;;;;;;;0.50;0.50;;;;;;;;;;5099802;28;20234;-83
2023/05/28 14:25:02;;;;;;;0.50;0.50;;;;;;;;;;5100065;28;20174;-84
2023/05/28 14:27:28;;;;;;;0.30;0.30;;;;;;;;;;5100022;28;20196;-84
2023/05/28 14:29:54;;;;;;;0.50;0.50;;;;;;;;;;5100093;28;20201;-84
2023/05/28 14:32:20;;;;;;;0.33;0.33;;;;;;;;;;5099594;28;20197;-83
2023/05/28 14:34:46;;;;;;;0.40;0.40;;;;;;;;;;5098827;28;20217;-84
2023/05/28 14:37:12;;;;;;;0.37;0.37;;;;;;;;;;5100423;28;20170;-85
2023/05/28 14:39:38;;;;;;;0.50;0.50;;;;;;;;;;5099604;28;20204;-84